Archival Weather

Chicago O'Hare International

Chicago, Illinois (KORD)

Report from: Tuesday, December 6, 2022 11:51 AM CST
Current time: Saturday, February 4, 2023 10:47 PM CST

Current weather
Weather history
Weather forecast

Temperature6.1°C (43.0°F)
Wind chill4.1°C (39.5°F)
Dew point2.2°C (36.0°F)
Winds 5 kts (2.6 m/s, 5.8 mph) Northeast (50°)
Visibility7 mi. (11.3 km)
Clouds Ceiling: Overcast 1,300 ft. (396 m)
Altimeter30.00 in.Hg (1016 mB)
Relative humidity76 %
Density altitude-1,057 ft. (-322 m)
Sea-level pressure101.6 kPa (1016 mB, 30.01 in.Hg)
Max temp last 6 hours6.1°C (43.0°F)
Min temp last 6 hours2.8°C (37.0°F)
Remarks Automated weather observing station with precipitation discriminator
Pressure falling more quickly
Flight conditions Marginal Visual Meteorological Conditions
Raw dataKORD 061751Z 05005KT 7SM OVC013 06/02 A3000 RMK AO2 SLP164 T00610022 10061 20028 58006
An unhandled exception has occurred. See browser dev tools for details. Reload 🗙